createdAt,value
2023-04-11T00:01:10.154Z,99804.25
2023-04-11T00:03:39.105Z,99807.22
2023-04-11T00:06:09.999Z,99810.03
2023-04-11T00:08:38.134Z,99817.91
2023-04-11T00:11:06.463Z,99809.47
2023-04-11T00:13:35.181Z,99804.41
2023-04-11T00:16:03.673Z,99814.81
2023-04-11T00:18:32.106Z,99811.16
2023-04-11T00:21:00.281Z,99810.75
2023-04-11T00:23:29.736Z,99810.88
2023-04-11T00:25:58.597Z,99812.88
2023-04-11T00:28:26.592Z,99819.06
2023-04-11T00:30:54.580Z,99827.50
2023-04-11T00:33:22.689Z,99824.69
2023-04-11T00:35:51.312Z,99814.56
2023-04-11T00:38:19.863Z,99816.25
2023-04-11T00:40:49.800Z,99812.03
2023-04-11T00:43:17.819Z,99804.13
2023-04-11T00:45:46.582Z,99798.94
2023-04-11T00:48:14.990Z,99801.59
2023-04-11T00:50:44.349Z,99803.00
2023-04-11T00:53:13.516Z,99798.25
2023-04-11T00:55:41.794Z,99797.41
2023-04-11T00:58:11.698Z,99791.19
2023-04-11T01:00:39.880Z,99785.59
2023-04-11T01:03:08.611Z,99786.97
2023-04-11T01:05:37.256Z,99786.72
2023-04-11T01:08:05.837Z,99781.09
2023-04-11T01:10:34.242Z,99779.69
2023-04-11T01:13:02.678Z,99774.03
2023-04-11T01:15:32.569Z,99764.63
2023-04-11T01:18:02.179Z,99776.03
2023-04-11T01:20:31.939Z,99779.13
2023-04-11T01:23:00.365Z,99774.03
2023-04-11T01:25:30.112Z,99766.75
2023-04-11T01:27:58.633Z,99761.69
2023-04-11T01:30:27.031Z,99759.16
2023-04-11T01:32:55.296Z,99756.88
2023-04-11T01:35:23.608Z,99759.56
2023-04-11T01:37:51.962Z,99756.88
2023-04-11T01:40:21.539Z,99759.56
2023-04-11T01:42:51.697Z,99761.41
2023-04-11T01:45:22.477Z,99764.22
2023-04-11T01:47:51.938Z,99770.69
2023-04-11T01:50:20.216Z,99766.44
2023-04-11T01:52:49.796Z,99768.16
2023-04-11T01:55:18.238Z,99765.91
2023-04-11T01:57:46.514Z,99766.34
2023-04-11T02:00:17.139Z,99764.63
2023-04-11T02:02:47.103Z,99768.41
2023-04-11T02:05:15.600Z,99766.88
2023-04-11T02:07:45.241Z,99767.00
2023-04-11T02:10:18.771Z,99758.44
2023-04-11T02:12:46.959Z,99770.25
2023-04-11T02:15:16.918Z,99767.84
2023-04-11T02:17:45.714Z,99765.59
2023-04-11T02:20:14.584Z,99759.41
2023-04-11T02:22:42.785Z,99749.72
2023-04-11T02:25:11.147Z,99745.63
2023-04-11T02:27:39.409Z,99752.09
2023-04-11T02:30:08.169Z,99748.75
2023-04-11T02:32:38.413Z,99751.56
2023-04-11T02:35:07.820Z,99745.09
2023-04-11T02:37:36.630Z,99742.41
2023-04-11T02:40:05.880Z,99738.06
2023-04-11T02:42:34.118Z,99744.38
2023-04-11T02:45:02.482Z,99734.41
2023-04-11T02:47:30.668Z,99726.66
2023-04-11T02:50:05.829Z,99720.34
2023-04-11T02:52:42.364Z,99715.28
2023-04-11T02:55:12.232Z,99703.75
2023-04-11T02:57:40.453Z,99709.94
2023-04-11T03:00:13.111Z,99709.09
2023-04-11T03:02:49.209Z,99706.00
2023-04-11T03:05:23.207Z,99712.19
2023-04-11T03:07:54.204Z,99703.31
2023-04-11T03:10:22.940Z,99703.31
2023-04-11T03:12:51.325Z,99693.06
2023-04-11T03:15:19.501Z,99692.22
2023-04-11T03:17:48.145Z,99680.13
2023-04-11T03:20:19.853Z,99681.53
2023-04-11T03:22:52.921Z,99680.41
2023-04-11T03:25:21.747Z,99670.16
2023-04-11T03:27:51.798Z,99675.34
2023-04-11T03:30:20.067Z,99662.41
2023-04-11T03:32:49.450Z,99662.56
2023-04-11T03:35:20.514Z,99679.97
2023-04-11T03:37:52.385Z,99674.78
2023-04-11T03:40:20.498Z,99672.53
2023-04-11T03:42:54.989Z,99676.19
2023-04-11T03:45:27.705Z,99697.53
2023-04-11T03:47:58.198Z,99686.03
2023-04-11T03:50:32.706Z,99682.34
2023-04-11T03:53:05.040Z,99691.22
2023-04-11T03:55:33.262Z,99676.19
2023-04-11T03:58:03.647Z,99672.09
2023-04-11T04:00:33.211Z,99668.59
2023-04-11T04:03:08.412Z,99666.91
2023-04-11T04:05:38.477Z,99663.50
2023-04-11T04:08:08.557Z,99663.50
2023-04-11T04:10:54.630Z,99660.72
2023-04-11T04:13:22.743Z,99665.63
2023-04-11T04:16:06.358Z,99662.13
2023-04-11T04:18:34.756Z,99660.16
2023-04-11T04:21:03.267Z,99648.88
2023-04-11T04:23:34.148Z,99645.25
2023-04-11T04:26:25.112Z,99643.31
2023-04-11T04:29:12.786Z,99650.03
2023-04-11T04:31:57.258Z,99639.50
2023-04-11T04:34:38.187Z,99628.97
2023-04-11T04:37:06.562Z,99624.19
2023-04-11T04:39:43.440Z,99621.50
2023-04-11T04:42:16.480Z,99616.47
2023-04-11T04:44:45.108Z,99607.03
2023-04-11T04:47:18.535Z,99596.06
2023-04-11T04:49:47.057Z,99596.94
2023-04-11T04:52:16.966Z,99599.16
2023-04-11T04:54:47.144Z,99590.72
2023-04-11T04:57:15.528Z,99595.09
2023-04-11T04:59:45.764Z,99585.13
2023-04-11T05:02:17.336Z,99581.75
2023-04-11T05:04:46.880Z,99580.78
2023-04-11T05:07:16.159Z,99586.13
2023-04-11T05:09:47.971Z,99586.81
2023-04-11T05:12:27.037Z,99588.50
2023-04-11T05:14:59.642Z,99581.22
2023-04-11T05:17:31.264Z,99578.97
2023-04-11T05:19:59.710Z,99565.19
2023-04-11T05:22:29.021Z,99566.06
2023-04-11T05:24:59.614Z,99575.47
2023-04-11T05:27:28.353Z,99581.50
2023-04-11T05:29:56.427Z,99572.22
2023-04-11T05:32:25.426Z,99562.97
2023-04-11T05:34:57.299Z,99569.84
2023-04-11T05:37:44.981Z,99559.56
2023-04-11T05:40:16.295Z,99559.44
2023-04-11T05:42:44.524Z,99554.53
2023-04-11T05:45:12.898Z,99550.59
2023-04-11T05:47:41.019Z,99542.97
2023-04-11T05:50:09.554Z,99550.00
2023-04-11T05:52:37.670Z,99538.91
2023-04-11T05:55:06.210Z,99542.97
2023-04-11T05:57:35.858Z,99546.06
2023-04-11T06:00:13.367Z,99538.31
2023-04-11T06:02:46.548Z,99537.03
2023-04-11T06:05:16.636Z,99532.78
2023-04-11T06:07:46.510Z,99530.38
2023-04-11T06:10:14.693Z,99527.00
2023-04-11T06:12:44.146Z,99524.56
2023-04-11T06:15:14.037Z,99518.50
2023-04-11T06:17:42.343Z,99515.22
2023-04-11T06:20:11.449Z,99509.28
2023-04-11T06:22:40.365Z,99501.97
2023-04-11T06:25:09.005Z,99505.72
2023-04-11T06:27:37.285Z,99509.50
2023-04-11T06:30:08.006Z,99501.00
2023-04-11T06:32:36.455Z,99502.25
2023-04-11T06:35:04.831Z,99492.47
2023-04-11T06:37:33.003Z,99495.41
2023-04-11T06:40:01.407Z,99486.75
2023-04-11T06:42:29.697Z,99492.19
2023-04-11T06:44:59.094Z,99488.91
2023-04-11T06:47:28.753Z,99489.97
2023-04-11T06:49:57.022Z,99492.88
2023-04-11T06:52:27.002Z,99481.38
2023-04-11T06:54:56.238Z,99459.88
2023-04-11T06:57:24.447Z,99463.78
2023-04-11T06:59:52.541Z,99460.84
2023-04-11T07:02:20.861Z,99453.88
2023-04-11T07:04:50.790Z,99445.56
2023-04-11T07:07:18.889Z,99437.59
2023-04-11T07:09:47.728Z,99432.13
2023-04-11T07:12:16.056Z,99422.28
2023-04-11T07:14:44.434Z,99416.16
2023-04-11T07:17:12.677Z,99416.34
2023-04-11T07:19:40.732Z,99407.69
2023-04-11T07:22:11.380Z,99396.97
2023-04-11T07:24:39.984Z,99401.53
2023-04-11T07:27:08.502Z,99400.72
2023-04-11T07:29:36.540Z,99384.31
2023-04-11T07:32:04.979Z,99386.50
2023-04-11T07:34:33.458Z,99367.88
2023-04-11T07:37:01.841Z,99364.69
2023-04-11T07:39:31.768Z,99345.03
2023-04-11T07:41:59.973Z,99339.03
2023-04-11T07:44:28.349Z,99333.00
2023-04-11T07:46:56.475Z,99318.22
2023-04-11T07:49:24.641Z,99323.41
2023-04-11T07:51:52.820Z,99321.22
2023-04-11T07:54:20.937Z,99331.63
2023-04-11T07:56:50.435Z,99320.53
2023-04-11T07:59:18.559Z,99310.66
2023-04-11T08:01:47.239Z,99308.16
2023-04-11T08:04:15.587Z,99314.50
2023-04-11T08:06:44.293Z,99310.97
2023-04-11T08:09:12.536Z,99318.84
2023-04-11T08:11:41.213Z,99304.59
2023-04-11T08:14:10.802Z,99305.09
2023-04-11T08:16:38.976Z,99294.84
2023-04-11T08:19:07.120Z,99279.59
2023-04-11T08:21:35.237Z,99275.88
2023-04-11T08:24:03.383Z,99264.81
2023-04-11T08:26:32.124Z,99270.31
2023-04-11T08:29:00.151Z,99271.16
2023-04-11T08:31:30.086Z,99266.63
2023-04-11T08:34:00.750Z,99245.75
2023-04-11T08:36:29.520Z,99246.59
2023-04-11T08:39:00.374Z,99251.63
2023-04-11T08:41:30.877Z,99244.72
2023-04-11T08:43:59.285Z,99246.06
2023-04-11T08:46:28.030Z,99231.41
2023-04-11T08:48:57.629Z,99212.25
2023-04-11T08:51:26.903Z,99197.44
2023-04-11T08:53:58.188Z,99181.69
2023-04-11T08:56:26.773Z,99175.19
2023-04-11T08:58:55.252Z,99167.00
2023-04-11T09:01:32.134Z,99171.16
2023-04-11T09:04:05.283Z,99161.09
2023-04-11T09:06:35.088Z,99151.09
2023-04-11T09:09:05.307Z,99142.00
2023-04-11T09:11:51.818Z,99129.47
2023-04-11T09:14:20.419Z,99136.16
2023-04-11T09:16:54.884Z,99118.44
2023-04-11T09:19:27.898Z,99105.91
2023-04-11T09:21:56.868Z,99090.41
2023-04-11T09:24:26.408Z,99091.97
2023-04-11T09:27:07.201Z,99076.56
2023-04-11T09:29:39.334Z,99068.81
2023-04-11T09:32:07.620Z,99049.00
2023-04-11T09:34:42.596Z,99049.09
2023-04-11T09:37:10.888Z,99037.91
2023-04-11T09:39:39.167Z,99038.44
2023-04-11T09:42:22.108Z,99032.22
2023-04-11T09:44:50.362Z,99023.41
2023-04-11T09:47:18.703Z,99026.78
2023-04-11T09:49:48.645Z,99014.44
2023-04-11T09:52:17.225Z,98999.44
2023-04-11T09:54:45.978Z,98999.97
2023-04-11T09:57:14.684Z,98981.72
2023-04-11T09:59:43.637Z,98966.19
2023-04-11T10:02:11.927Z,98954.91
2023-04-11T10:04:40.959Z,98945.19
2023-04-11T10:07:14.621Z,98938.38
2023-04-11T10:09:43.785Z,98917.41
2023-04-11T10:12:11.978Z,98904.50
2023-04-11T10:14:43.811Z,98907.84
2023-04-11T10:17:12.966Z,98895.72
2023-04-11T10:19:41.073Z,98867.72
2023-04-11T10:22:11.305Z,98874.91
2023-04-11T10:24:39.753Z,98860.81
2023-04-11T10:27:07.893Z,98850.41
2023-04-11T10:29:53.098Z,98849.41
2023-04-11T10:32:22.850Z,98828.84
2023-04-11T10:35:10.083Z,98820.97
2023-04-11T10:37:39.589Z,98806.53
2023-04-11T10:40:11.043Z,98794.94
2023-04-11T10:42:40.326Z,98775.91
2023-04-11T10:45:15.103Z,98767.66
2023-04-11T10:47:43.630Z,98768.91
2023-04-11T10:50:31.754Z,98756.72
2023-04-11T10:53:03.320Z,98737.03
2023-04-11T10:55:32.964Z,98719.59
2023-04-11T10:58:04.672Z,98708.81
2023-04-11T11:01:00.258Z,98693.47
2023-04-11T11:03:30.739Z,98691.41
2023-04-11T11:06:00.167Z,98696.19
2023-04-11T11:08:30.732Z,98676.44
2023-04-11T11:11:01.565Z,98671.66
2023-04-11T11:13:39.937Z,98650.50
2023-04-11T11:16:08.189Z,98646.56
2023-04-11T11:18:36.769Z,98641.19
2023-04-11T11:21:07.387Z,98618.97
2023-04-11T11:23:38.954Z,98599.25
2023-04-11T11:26:07.104Z,98596.34
2023-04-11T11:28:46.476Z,98596.56
2023-04-11T11:31:14.866Z,98581.84
2023-04-11T11:33:43.170Z,98583.09
2023-04-11T11:36:12.248Z,98568.97
2023-04-11T11:38:41.742Z,98554.88
2023-04-11T11:41:09.977Z,98564.00
2023-04-11T11:43:38.987Z,98552.78
2023-04-11T11:46:12.441Z,98546.97
2023-04-11T11:48:40.794Z,98537.19
2023-04-11T11:51:09.151Z,98517.28
2023-04-11T11:53:37.576Z,98517.28
2023-04-11T11:56:17.135Z,98508.56
2023-04-11T11:58:46.000Z,98495.28
2023-04-11T12:01:16.045Z,98478.94
2023-04-11T12:03:44.799Z,98482.44
2023-04-11T12:06:13.547Z,98466.25
2023-04-11T12:08:50.358Z,98464.00
2023-04-11T12:11:19.913Z,98455.25
2023-04-11T12:13:53.003Z,98450.69
2023-04-11T12:16:23.131Z,98439.69
2023-04-11T12:18:51.182Z,98432.63
2023-04-11T12:21:19.261Z,98410.84
2023-04-11T12:23:47.442Z,98407.69
2023-04-11T12:26:17.761Z,98407.31
2023-04-11T12:28:47.526Z,98389.47
2023-04-11T12:31:15.815Z,98376.78
2023-04-11T12:33:44.008Z,98362.28
2023-04-11T12:36:12.750Z,98349.81
2023-04-11T12:38:41.149Z,98348.78
2023-04-11T12:43:42.929Z,98331.03
2023-04-11T12:46:12.656Z,98314.66
2023-04-11T12:48:41.148Z,98314.25
2023-04-11T12:51:09.429Z,98280.22
2023-04-11T12:53:37.751Z,98296.41
2023-04-11T12:56:06.329Z,98280.22
2023-04-11T12:58:34.801Z,98268.78
2023-04-11T13:01:03.098Z,98252.00
2023-04-11T13:03:33.440Z,98231.84
2023-04-11T13:06:01.543Z,98223.28
2023-04-11T13:08:29.565Z,98205.81
2023-04-11T13:10:57.630Z,98202.03
2023-04-11T13:13:25.972Z,98195.38
2023-04-11T13:15:54.186Z,98179.19
2023-04-11T13:18:22.370Z,98170.88
2023-04-11T13:20:51.800Z,98159.72
2023-04-11T13:23:20.149Z,98150.06
2023-04-11T13:25:48.602Z,98143.59
2023-04-11T13:28:16.899Z,98133.28
2023-04-11T13:30:45.526Z,98125.84
2023-04-11T13:33:13.603Z,98120.03
2023-04-11T13:35:41.876Z,98115.09
2023-04-11T13:38:11.536Z,98108.94
2023-04-11T13:40:40.527Z,98101.91
2023-04-11T13:43:08.619Z,98096.16
2023-04-11T13:45:37.097Z,98085.38
2023-04-11T13:48:05.449Z,98078.19
2023-04-11T13:50:34.943Z,98067.22
2023-04-11T13:53:03.152Z,98056.59
2023-04-11T13:55:32.682Z,98046.31
2023-04-11T13:58:00.737Z,98036.19
2023-04-11T14:00:28.755Z,98028.56
2023-04-11T14:02:56.962Z,98030.41
2023-04-11T14:05:27.003Z,98020.69
2023-04-11T14:07:55.109Z,98021.69
2023-04-11T14:10:23.606Z,98000.28
2023-04-11T14:12:53.126Z,97997.13
2023-04-11T14:15:21.894Z,97993.59
2023-04-11T14:17:50.108Z,97986.69
2023-04-11T14:20:18.349Z,97968.69
2023-04-11T14:22:46.878Z,97966.00
2023-04-11T14:25:15.843Z,97959.19
2023-04-11T14:27:44.029Z,97948.25
2023-04-11T14:30:14.888Z,97950.28
2023-04-11T14:32:43.116Z,97934.56
2023-04-11T14:35:11.371Z,97933.34
2023-04-11T14:37:39.807Z,97926.31
2023-04-11T14:40:11.086Z,97909.38
2023-04-11T14:42:39.878Z,97907.94
2023-04-11T14:45:08.767Z,97894.69
2023-04-11T14:47:39.874Z,97892.22
2023-04-11T14:50:08.845Z,97876.72
2023-04-11T14:52:37.031Z,97868.44
2023-04-11T14:55:05.283Z,97861.03
2023-04-11T14:57:45.192Z,97859.97
2023-04-11T15:00:18.991Z,97841.72
2023-04-11T15:02:49.982Z,97838.66
2023-04-11T15:05:19.729Z,97822.84
2023-04-11T15:07:49.063Z,97819.13
2023-04-11T15:10:18.579Z,97816.88
2023-04-11T15:12:46.636Z,97810.88
2023-04-11T15:15:15.098Z,97812.31
2023-04-11T15:17:44.113Z,97803.00
2023-04-11T15:20:14.721Z,97784.69
2023-04-11T15:22:43.836Z,97791.72
2023-04-11T15:25:12.860Z,97780.50
2023-04-11T15:27:41.230Z,97794.13
2023-04-11T15:30:10.490Z,97790.47
2023-04-11T15:32:42.801Z,97777.81
2023-04-11T15:35:11.362Z,97773.34
2023-04-11T15:37:41.475Z,97768.00
2023-04-11T15:40:12.264Z,97739.00
2023-04-11T15:42:41.106Z,97749.41
2023-04-11T15:45:09.327Z,97752.63
2023-04-11T15:47:37.440Z,97752.47
2023-04-11T15:50:06.046Z,97766.31
2023-04-11T15:52:34.468Z,97763.00
2023-04-11T15:55:04.175Z,97750.03
2023-04-11T15:57:33.042Z,97738.34
2023-04-11T16:00:01.286Z,97746.38
2023-04-11T16:02:37.915Z,97740.59
2023-04-11T16:05:08.023Z,97744.25
2023-04-11T16:07:36.134Z,97751.00
2023-04-11T16:10:06.048Z,97749.16
2023-04-11T16:12:34.221Z,97749.22
2023-04-11T16:15:02.333Z,97742.28
2023-04-11T16:17:30.778Z,97746.06
2023-04-11T16:19:58.842Z,97744.66
2023-04-11T16:22:27.020Z,97743.69
2023-04-11T16:24:56.338Z,97743.28
2023-04-11T16:27:26.290Z,97743.28
2023-04-11T16:29:59.842Z,97729.66
2023-04-11T16:32:28.502Z,97736.66
2023-04-11T16:34:57.889Z,97731.72
2023-04-11T16:37:26.086Z,97731.94
2023-04-11T16:39:54.124Z,97731.94
2023-04-11T16:42:22.199Z,97738.97
2023-04-11T16:44:52.043Z,97732.34
2023-04-11T16:47:20.720Z,97734.19
2023-04-11T16:49:49.650Z,97739.56
2023-04-11T16:52:17.750Z,97745.31
2023-04-11T16:54:46.017Z,97755.03
2023-04-11T16:57:14.241Z,97761.59
2023-04-11T16:59:42.787Z,97762.16
2023-04-11T17:02:12.468Z,97769.53
2023-04-11T17:04:41.513Z,97766.22
2023-04-11T17:07:10.694Z,97779.81
2023-04-11T17:09:39.159Z,97777.84
2023-04-11T17:12:07.464Z,97767.31
2023-04-11T17:14:36.585Z,97769.16
2023-04-11T17:17:05.095Z,97770.66
2023-04-11T17:19:34.725Z,97774.56
2023-04-11T17:22:03.059Z,97782.63
2023-04-11T17:24:31.761Z,97772.09
2023-04-11T17:27:00.172Z,97782.63
2023-04-11T17:29:28.535Z,97771.06
2023-04-11T17:31:56.775Z,97776.22
2023-04-11T17:34:25.188Z,97766.91
2023-04-11T17:36:55.293Z,97772.09
2023-04-11T17:39:23.547Z,97762.16
2023-04-11T17:41:51.772Z,97773.16
2023-04-11T17:44:20.792Z,97784.13
2023-04-11T17:46:49.015Z,97768.88
2023-04-11T17:49:17.171Z,97764.09
2023-04-11T17:51:56.260Z,97764.53
2023-04-11T17:54:28.562Z,97782.47
2023-04-11T17:56:57.132Z,97793.19
2023-04-11T17:59:25.564Z,97789.44
2023-04-11T18:01:56.072Z,97798.13
2023-04-11T18:04:24.492Z,97803.09
2023-04-11T18:06:52.925Z,97801.47
2023-04-11T18:09:21.981Z,97800.63
2023-04-11T18:11:51.431Z,97805.81
2023-04-11T18:14:19.487Z,97809.31
2023-04-11T18:16:47.948Z,97806.84
2023-04-11T18:19:15.996Z,97808.25
2023-04-11T18:21:44.091Z,97794.25
2023-04-11T18:24:12.500Z,97809.31
2023-04-11T18:26:40.672Z,97797.34
2023-04-11T18:29:10.522Z,97801.47
2023-04-11T18:31:38.652Z,97804.78
2023-04-11T18:34:07.948Z,97808.50
2023-04-11T18:36:36.440Z,97815.91
2023-04-11T18:39:04.903Z,97816.31
2023-04-11T18:41:32.942Z,97820.84
2023-04-11T18:44:02.486Z,97842.91
2023-04-11T18:46:34.266Z,97856.91
2023-04-11T18:49:05.248Z,97851.97
2023-04-11T18:51:35.622Z,97867.25
2023-04-11T18:54:03.771Z,97868.69
2023-04-11T18:56:32.368Z,97872.00
2023-04-11T18:59:05.478Z,97875.28
2023-04-11T19:01:37.599Z,97878.94
2023-04-11T19:04:06.240Z,97871.91
2023-04-11T19:06:34.846Z,97874.16
2023-04-11T19:09:02.937Z,97872.22
2023-04-11T19:11:31.244Z,97880.84
2023-04-11T19:14:00.465Z,97879.97
2023-04-11T19:16:28.643Z,97882.38
2023-04-11T19:18:59.374Z,97886.84
2023-04-11T19:21:27.566Z,97880.25
2023-04-11T19:23:57.569Z,97890.91
2023-04-11T19:26:27.495Z,97877.66
2023-04-11T19:28:56.288Z,97890.84
2023-04-11T19:31:26.385Z,97894.69
2023-04-11T19:33:54.638Z,97893.56
2023-04-11T19:36:24.317Z,97898.88
2023-04-11T19:38:52.733Z,97904.56
2023-04-11T19:41:21.042Z,97914.88
2023-04-11T19:43:49.513Z,97908.84
2023-04-11T19:46:17.977Z,97910.03
2023-04-11T19:48:46.633Z,97913.72
2023-04-11T19:51:14.645Z,97934.22
2023-04-11T19:53:44.188Z,97929.91
2023-04-11T19:56:12.400Z,97939.88
2023-04-11T19:58:40.650Z,97946.44
2023-04-11T20:01:09.865Z,97957.59
2023-04-11T20:03:38.320Z,97960.84
2023-04-11T20:06:06.844Z,97965.91
2023-04-11T20:08:36.671Z,97973.66
2023-04-11T20:11:06.481Z,97969.16
2023-04-11T20:13:36.131Z,97972.03
2023-04-11T20:16:08.370Z,97976.53
2023-04-11T20:18:36.746Z,97984.50
2023-04-11T20:21:06.352Z,97978.06
2023-04-11T20:23:35.507Z,97986.59
2023-04-11T20:26:03.807Z,97982.09
2023-04-11T20:28:33.339Z,97982.09
2023-04-11T20:31:02.956Z,97975.66
2023-04-11T20:33:31.110Z,97982.59
2023-04-11T20:35:59.685Z,97976.59
2023-04-11T20:38:27.775Z,97977.34
2023-04-11T20:40:55.993Z,97987.84
2023-04-11T20:43:26.478Z,97978.84
2023-04-11T20:45:56.122Z,97972.56
2023-04-11T20:48:26.026Z,97980.75
2023-04-11T20:50:55.929Z,98003.53
2023-04-11T20:53:24.667Z,97990.25
2023-04-11T20:55:54.172Z,97987.22
2023-04-11T20:58:22.206Z,97987.84
2023-04-11T21:00:50.293Z,97981.06
2023-04-11T21:03:19.992Z,97999.09
2023-04-11T21:05:50.168Z,98010.13
2023-04-11T21:08:18.496Z,98015.47
2023-04-11T21:10:47.151Z,98028.81
2023-04-11T21:13:15.229Z,98044.66
2023-04-11T21:15:43.506Z,98029.13
2023-04-11T21:18:11.768Z,98024.59
2023-04-11T21:20:41.750Z,98013.16
2023-04-11T21:23:10.136Z,98000.94
2023-04-11T21:25:38.639Z,98003.78
2023-04-11T21:28:06.714Z,98012.72
2023-04-11T21:30:34.961Z,98012.72
2023-04-11T21:33:03.089Z,98006.47
2023-04-11T21:35:31.359Z,98008.84
2023-04-11T21:38:01.051Z,98011.69
2023-04-11T21:40:29.540Z,97997.97
2023-04-11T21:42:57.806Z,98000.16
2023-04-11T21:45:25.945Z,98005.56
2023-04-11T21:47:54.413Z,98003.94
2023-04-11T21:50:22.588Z,98004.00
2023-04-11T21:52:50.620Z,98013.06
2023-04-11T21:55:20.973Z,98001.13
2023-04-11T21:57:49.006Z,98011.50
2023-04-11T22:00:18.079Z,97992.25
2023-04-11T22:02:46.623Z,98008.59
2023-04-11T22:05:17.512Z,98005.28
2023-04-11T22:07:49.038Z,97999.00
2023-04-11T22:10:23.810Z,98002.03
2023-04-11T22:12:55.877Z,98008.72
2023-04-11T22:15:24.702Z,98007.03
2023-04-11T22:17:54.958Z,98007.41
2023-04-11T22:20:23.576Z,98017.13
2023-04-11T22:22:51.664Z,98014.94
2023-04-11T22:25:22.660Z,98016.75
2023-04-11T22:27:55.792Z,98015.25
2023-04-11T22:30:25.591Z,98012.28
2023-04-11T22:32:55.602Z,98018.41
2023-04-11T22:35:25.032Z,98033.47
2023-04-11T22:37:55.507Z,98030.16
2023-04-11T22:40:25.160Z,98020.53
2023-04-11T22:42:54.140Z,98011.91
2023-04-11T22:45:23.521Z,98007.56
2023-04-11T22:47:57.014Z,98013.91
2023-04-11T22:50:25.121Z,98017.91
2023-04-11T22:52:54.867Z,98023.25
2023-04-11T22:55:24.821Z,98018.75
2023-04-11T22:57:53.064Z,98017.56
2023-04-11T23:00:22.092Z,98016.56
2023-04-11T23:02:51.256Z,98015.91
2023-04-11T23:05:20.849Z,98010.41
2023-04-11T23:07:49.287Z,98023.72
2023-04-11T23:10:17.689Z,98020.88
2023-04-11T23:12:47.386Z,98020.19
2023-04-11T23:15:15.446Z,98022.16
2023-04-11T23:17:43.856Z,98013.81
2023-04-11T23:20:13.433Z,98018.78
2023-04-11T23:22:44.136Z,98011.06
2023-04-11T23:25:12.799Z,98007.75
2023-04-11T23:27:41.177Z,98006.75
2023-04-11T23:30:11.859Z,97998.81
2023-04-11T23:32:41.614Z,97996.16
2023-04-11T23:35:10.178Z,97994.47
2023-04-11T23:37:38.395Z,97987.50
2023-04-11T23:40:12.610Z,97977.91
2023-04-11T23:42:41.131Z,97978.91
2023-04-11T23:45:10.809Z,97969.59
2023-04-11T23:47:39.208Z,97973.28
2023-04-11T23:50:08.067Z,97981.09
2023-04-11T23:52:36.140Z,97969.41
2023-04-11T23:55:04.339Z,97974.22
2023-04-11T23:57:34.206Z,97963.94
